Time;durP1;ratioP1;P1;durP2;ratioP2;P2;SDS_P1;SDS_P2;PMS_P1;PMS_P2;Temp;Humidity;BMP_temperature;BMP_pressure;BME280_temperature;BME280_humidity;BME280_pressure;Samples;Min_cycle;Max_cycle;Signal;HPM_P1;HPM_P2
2024/03/11 00:01:39;;;;;;;24.20;18.40;;;11.50;99.90;;;;;;4931496;29;20737;-73
2024/03/11 00:04:06;;;;;;;25.02;19.80;;;11.50;99.90;;;;;;4932963;29;20268;-73
2024/03/11 00:06:35;;;;;;;22.20;18.85;;;11.50;99.90;;;;;;4932870;29;20180;-74
2024/03/11 00:09:03;;;;;;;22.23;18.23;;;11.50;99.90;;;;;;4932684;29;20174;-74
2024/03/11 00:11:29;;;;;;;22.10;19.05;;;11.50;99.90;;;;;;4932789;29;20197;-74
2024/03/11 00:13:56;;;;;;;20.50;17.73;;;11.50;99.90;;;;;;4932906;29;20173;-74
2024/03/11 00:16:22;;;;;;;21.80;18.38;;;11.50;99.90;;;;;;4933079;29;20199;-73
2024/03/11 00:18:48;;;;;;;23.70;19.70;;;11.40;99.90;;;;;;4932917;29;20181;-74
2024/03/11 00:21:13;;;;;;;24.70;17.57;;;11.50;99.90;;;;;;4962751;28;20941;-73
2024/03/11 00:23:39;;;;;;;20.53;16.90;;;11.40;99.90;;;;;;4931562;29;20692;-74
2024/03/11 00:26:05;;;;;;;22.43;19.10;;;11.40;99.90;;;;;;4932790;29;20180;-73
2024/03/11 00:28:33;;;;;;;23.05;18.70;;;11.40;99.90;;;;;;4931663;29;20181;-74
2024/03/11 00:31:00;;;;;;;24.58;19.50;;;11.40;99.90;;;;;;4931133;29;20184;-74
2024/03/11 00:33:28;;;;;;;21.52;18.55;;;11.40;99.90;;;;;;4932624;29;20185;-74
2024/03/11 00:35:54;;;;;;;22.15;18.50;;;11.40;99.90;;;;;;4915896;29;20180;-73
2024/03/11 00:38:20;;;;;;;24.38;19.20;;;11.40;99.90;;;;;;4931684;29;20232;-73
2024/03/11 00:40:46;;;;;;;23.00;19.57;;;11.40;99.90;;;;;;4930609;29;20180;-73
2024/03/11 00:43:11;;;;;;;20.87;17.60;;;11.40;99.90;;;;;;4932896;29;20750;-73
2024/03/11 00:45:37;;;;;;;21.93;17.70;;;11.30;99.90;;;;;;4932898;29;20260;-73
2024/03/11 00:48:06;;;;;;;22.77;17.67;;;11.30;99.90;;;;;;4931405;29;20185;-73
2024/03/11 00:50:33;;;;;;;20.20;15.95;;;11.30;99.90;;;;;;4930535;29;20209;-74
2024/03/11 00:53:00;;;;;;;18.92;16.92;;;11.30;99.90;;;;;;4931063;29;20201;-73
2024/03/11 00:55:26;;;;;;;24.02;18.80;;;11.30;99.90;;;;;;4933075;29;20181;-73
2024/03/11 00:57:52;;;;;;;22.90;18.45;;;11.20;99.90;;;;;;4935979;29;20759;-73
2024/03/11 01:00:22;;;;;;;28.85;19.63;;;11.20;99.90;;;;;;4935520;29;20590;-73
2024/03/11 01:02:51;;;;;;;27.42;21.30;;;11.20;99.90;;;;;;4934182;29;20237;-73
2024/03/11 01:05:16;;;;;;;25.55;19.13;;;11.20;99.90;;;;;;4934964;29;20523;-74
2024/03/11 01:07:45;;;;;;;21.13;17.40;;;11.20;99.90;;;;;;4942874;29;20184;-73
2024/03/11 01:10:13;;;;;;;23.17;18.98;;;11.20;99.90;;;;;;4944578;29;20204;-73
2024/03/11 01:12:40;;;;;;;23.38;17.83;;;11.20;99.90;;;;;;4942926;29;20636;-74
2024/03/11 01:15:09;;;;;;;22.40;18.60;;;11.20;99.90;;;;;;4944449;29;20180;-74
2024/03/11 01:17:37;;;;;;;20.80;17.00;;;11.20;99.90;;;;;;4922313;29;20237;-74
2024/03/11 01:20:04;;;;;;;22.83;18.08;;;11.20;99.90;;;;;;4934471;29;20173;-73
2024/03/11 01:22:29;;;;;;;19.45;16.77;;;11.20;99.90;;;;;;4933934;29;20211;-73
2024/03/11 01:24:56;;;;;;;21.60;15.80;;;11.20;99.90;;;;;;4926778;29;20177;-74
2024/03/11 01:27:24;;;;;;;21.20;18.55;;;11.20;99.90;;;;;;4934547;29;20205;-73
2024/03/11 01:29:50;;;;;;;24.58;19.08;;;11.20;99.90;;;;;;4933818;29;20220;-73
2024/03/11 01:32:16;;;;;;;20.90;17.70;;;11.20;99.90;;;;;;4933992;29;20622;-73
2024/03/11 01:34:42;;;;;;;21.90;18.30;;;11.20;99.90;;;;;;4933972;29;20600;-73
2024/03/11 01:37:08;;;;;;;25.08;21.63;;;11.20;99.90;;;;;;4933861;29;20272;-73
2024/03/11 01:39:43;;;;;;;22.40;18.83;;;11.10;99.90;;;;;;4934952;29;20601;-72
2024/03/11 01:42:16;;;;;;;24.35;19.73;;;11.10;99.90;;;;;;4935036;29;20603;-73
2024/03/11 01:44:50;;;;;;;23.48;18.90;;;11.10;99.90;;;;;;4934246;29;20200;-73
2024/03/11 01:47:19;;;;;;;24.75;20.92;;;11.10;99.90;;;;;;4935381;29;20181;-73
2024/03/11 01:49:47;;;;;;;26.27;21.10;;;11.10;99.90;;;;;;4934751;29;20280;-73
2024/03/11 01:52:19;;;;;;;28.80;23.10;;;11.10;99.90;;;;;;4934700;29;20205;-74
2024/03/11 01:54:46;;;;;;;28.65;20.55;;;11.00;99.90;;;;;;4933712;29;20189;-74
2024/03/11 01:57:13;;;;;;;25.92;22.48;;;11.00;99.90;;;;;;4935222;29;20244;-74
2024/03/11 01:59:39;;;;;;;24.98;22.13;;;11.00;99.90;;;;;;4934404;29;20185;-74
2024/03/11 02:02:08;;;;;;;27.52;21.27;;;11.00;99.90;;;;;;4930044;29;20256;-74
2024/03/11 02:04:35;;;;;;;36.47;24.73;;;11.00;99.90;;;;;;4931832;29;20181;-74
2024/03/11 02:07:02;;;;;;;27.95;21.60;;;11.00;99.90;;;;;;4934384;29;20185;-73
2024/03/11 02:09:28;;;;;;;27.85;23.55;;;11.00;99.90;;;;;;4934284;29;20550;-73
2024/03/11 02:11:53;;;;;;;24.30;21.10;;;11.00;99.90;;;;;;4934458;29;20274;-73
2024/03/11 02:14:19;;;;;;;29.47;23.40;;;11.00;99.90;;;;;;4934769;29;21153;-73
2024/03/11 02:16:45;;;;;;;22.77;20.30;;;11.00;99.90;;;;;;4934649;29;20318;-73
2024/03/11 02:19:17;;;;;;;30.07;24.47;;;11.00;99.90;;;;;;4934342;29;20185;-73
2024/03/11 02:21:46;;;;;;;27.05;22.42;;;11.00;99.90;;;;;;4934429;29;20209;-74
2024/03/11 02:24:16;;;;;;;27.30;22.08;;;11.00;99.90;;;;;;4935070;29;20208;-73
2024/03/11 02:26:45;;;;;;;27.35;22.90;;;11.00;99.90;;;;;;4933618;29;20176;-73
2024/03/11 02:29:12;;;;;;;29.98;24.95;;;11.00;99.90;;;;;;4932791;29;20563;-73
2024/03/11 02:31:37;;;;;;;26.67;22.58;;;11.00;99.90;;;;;;4933131;29;20197;-74
2024/03/11 02:34:05;;;;;;;28.43;24.27;;;11.00;99.90;;;;;;4932972;29;20324;-74
2024/03/11 02:36:31;;;;;;;28.10;23.20;;;11.00;99.90;;;;;;4932984;29;20177;-74
2024/03/11 02:38:57;;;;;;;34.30;26.27;;;11.00;99.90;;;;;;4932517;29;20181;-74
2024/03/11 02:41:23;;;;;;;31.13;24.20;;;11.00;99.90;;;;;;4934021;29;20199;-73
2024/03/11 02:43:49;;;;;;;27.65;24.65;;;11.00;99.90;;;;;;4932575;29;20636;-73
2024/03/11 02:46:15;;;;;;;28.40;24.47;;;11.00;99.90;;;;;;4934086;29;20560;-74
2024/03/11 02:48:41;;;;;;;33.15;25.05;;;11.00;99.90;;;;;;4934039;29;20213;-74
2024/03/11 02:51:06;;;;;;;29.07;22.90;;;11.00;99.90;;;;;;4933145;29;20675;-73
2024/03/11 02:53:33;;;;;;;29.17;24.77;;;11.00;99.90;;;;;;4933981;29;20181;-73
2024/03/11 02:56:07;;;;;;;30.10;25.52;;;11.00;99.90;;;;;;4933825;29;20199;-73
2024/03/11 02:58:36;;;;;;;27.83;24.90;;;11.00;99.90;;;;;;4932595;29;20191;-73
2024/03/11 03:01:02;;;;;;;29.40;23.48;;;11.00;99.90;;;;;;4932929;29;20193;-73
2024/03/11 03:03:28;;;;;;;32.30;27.43;;;11.00;99.90;;;;;;4932390;29;20204;-74
2024/03/11 03:05:54;;;;;;;31.87;26.27;;;11.00;99.90;;;;;;4933654;29;20588;-73
2024/03/11 03:08:20;;;;;;;28.97;24.80;;;10.90;99.90;;;;;;4932506;29;20173;-73
2024/03/11 03:10:49;;;;;;;28.85;24.90;;;10.90;99.90;;;;;;4931788;29;20269;-74
2024/03/11 03:13:15;;;;;;;31.00;25.20;;;10.90;99.90;;;;;;4932489;29;20718;-73
2024/03/11 03:15:41;;;;;;;28.30;25.20;;;11.00;99.90;;;;;;4933770;29;20188;-74
2024/03/11 03:18:07;;;;;;;28.42;25.17;;;11.00;99.90;;;;;;4932569;29;20922;-74
2024/03/11 03:20:33;;;;;;;29.27;24.90;;;10.90;99.90;;;;;;4933085;29;20265;-74
2024/03/11 03:22:59;;;;;;;31.40;26.37;;;10.90;99.90;;;;;;4916418;29;20299;-74
2024/03/11 03:25:30;;;;;;;28.60;25.60;;;10.90;99.90;;;;;;4932317;29;20181;-73
2024/03/11 03:27:56;;;;;;;30.98;27.00;;;10.90;99.90;;;;;;4932037;29;20627;-74
2024/03/11 03:30:22;;;;;;;31.23;27.90;;;10.90;99.90;;;;;;4931505;29;20247;-73
2024/03/11 03:32:48;;;;;;;27.37;24.47;;;10.90;99.90;;;;;;4931583;29;20625;-74
2024/03/11 03:35:14;;;;;;;28.13;25.13;;;10.90;99.90;;;;;;4916237;29;20230;-74
2024/03/11 03:37:40;;;;;;;27.17;23.40;;;10.90;99.90;;;;;;4931870;29;20189;-74
2024/03/11 03:40:15;;;;;;;30.25;25.75;;;10.90;99.90;;;;;;4932978;29;20168;-73
2024/03/11 03:42:43;;;;;;;28.67;23.90;;;10.90;99.90;;;;;;4932822;29;20697;-73
2024/03/11 03:45:09;;;;;;;27.73;24.42;;;10.90;99.90;;;;;;4931782;29;20177;-74
2024/03/11 03:47:36;;;;;;;29.00;24.50;;;11.00;99.90;;;;;;4931750;29;20183;-73
2024/03/11 03:50:03;;;;;;;29.95;25.83;;;11.00;99.90;;;;;;4925206;29;20807;-74
2024/03/11 03:52:32;;;;;;;26.60;23.70;;;11.00;99.90;;;;;;4933079;29;20275;-74
2024/03/11 03:54:57;;;;;;;30.60;24.98;;;11.00;99.90;;;;;;4932537;29;20199;-74
2024/03/11 03:57:23;;;;;;;27.87;24.20;;;11.00;99.90;;;;;;4933387;29;20218;-74
2024/03/11 03:59:49;;;;;;;25.67;22.43;;;11.00;99.90;;;;;;4931139;29;20216;-74
2024/03/11 04:02:14;;;;;;;25.13;21.77;;;11.00;99.90;;;;;;4932659;29;20212;-73
2024/03/11 04:04:41;;;;;;;30.60;26.33;;;11.00;99.90;;;;;;4933069;29;21397;-74
2024/03/11 04:07:07;;;;;;;25.60;21.98;;;11.00;99.90;;;;;;4932774;29;20574;-74
2024/03/11 04:09:33;;;;;;;27.03;22.33;;;11.00;99.90;;;;;;4932467;29;20173;-74
2024/03/11 04:11:59;;;;;;;26.27;22.83;;;11.00;99.90;;;;;;4931601;29;20216;-74
2024/03/11 04:14:24;;;;;;;25.67;22.97;;;11.00;99.90;;;;;;4932948;29;20181;-74
2024/03/11 04:16:50;;;;;;;28.70;23.83;;;11.00;99.90;;;;;;4933020;29;20182;-74
2024/03/11 04:19:18;;;;;;;27.52;23.52;;;11.00;99.90;;;;;;4921737;29;20193;-74
2024/03/11 04:21:44;;;;;;;27.33;24.38;;;11.10;99.90;;;;;;4931077;29;20232;-74
2024/03/11 04:24:11;;;;;;;26.83;23.27;;;11.10;99.90;;;;;;4932822;29;20213;-74
2024/03/11 04:26:38;;;;;;;27.20;23.17;;;11.10;99.90;;;;;;4933087;29;20189;-74
2024/03/11 04:29:05;;;;;;;29.58;23.90;;;11.10;99.90;;;;;;4931055;29;20177;-74
2024/03/11 04:31:33;;;;;;;25.13;22.00;;;11.10;99.90;;;;;;4935223;29;20201;-73
2024/03/11 04:33:58;;;;;;;26.42;23.73;;;11.10;99.90;;;;;;4935656;29;20548;-74
2024/03/11 04:36:25;;;;;;;31.57;24.80;;;11.10;99.90;;;;;;4935442;29;20205;-73
2024/03/11 04:38:51;;;;;;;30.13;25.77;;;11.10;99.90;;;;;;4936383;29;20597;-73
2024/03/11 04:41:17;;;;;;;28.57;25.40;;;11.10;99.90;;;;;;4933684;29;20207;-73
2024/03/11 04:43:42;;;;;;;29.37;26.20;;;11.10;99.90;;;;;;4933133;29;20636;-73
2024/03/11 04:46:10;;;;;;;28.43;24.50;;;11.10;99.90;;;;;;4936556;29;20177;-74
2024/03/11 04:48:36;;;;;;;27.05;24.13;;;11.10;99.90;;;;;;4935170;29;20181;-74
2024/03/11 04:51:04;;;;;;;29.48;26.27;;;11.10;99.90;;;;;;4934349;29;20189;-74
2024/03/11 04:53:30;;;;;;;30.42;26.40;;;11.00;99.90;;;;;;4935130;29;20188;-74
2024/03/11 04:55:56;;;;;;;28.93;25.87;;;11.00;99.90;;;;;;4934877;29;20182;-74
2024/03/11 04:58:23;;;;;;;34.20;29.57;;;11.00;99.90;;;;;;4936063;29;20678;-74
2024/03/11 05:00:50;;;;;;;32.08;27.63;;;11.00;99.90;;;;;;4935151;29;20232;-74
2024/03/11 05:03:18;;;;;;;31.50;28.02;;;11.00;99.90;;;;;;4934958;29;20567;-73
2024/03/11 05:05:44;;;;;;;30.70;25.40;;;11.00;99.90;;;;;;4936081;29;20180;-74
2024/03/11 05:08:10;;;;;;;31.77;28.07;;;11.00;99.90;;;;;;4934675;29;20554;-74
2024/03/11 05:10:35;;;;;;;28.60;25.50;;;10.90;99.90;;;;;;4930056;29;20177;-74
2024/03/11 05:13:05;;;;;;;33.30;28.63;;;10.90;99.90;;;;;;4935565;29;20219;-74
2024/03/11 05:15:32;;;;;;;32.45;27.83;;;10.90;99.90;;;;;;4936588;29;20276;-74
2024/03/11 05:17:58;;;;;;;31.83;28.08;;;10.90;99.90;;;;;;4937073;29;20177;-74
2024/03/11 05:20:23;;;;;;;33.03;27.70;;;10.90;99.90;;;;;;4918692;29;20177;-74
2024/03/11 05:22:50;;;;;;;36.10;29.37;;;10.90;99.90;;;;;;4934220;29;20214;-74
2024/03/11 05:25:17;;;;;;;36.25;31.25;;;10.90;99.90;;;;;;4935784;29;20173;-73
2024/03/11 05:27:47;;;;;;;33.22;27.85;;;10.90;99.90;;;;;;4935402;29;20185;-74
2024/03/11 05:30:14;;;;;;;32.13;28.63;;;10.80;99.90;;;;;;4934059;29;20514;-74
2024/03/11 05:32:43;;;;;;;32.42;27.75;;;10.80;99.90;;;;;;4919356;29;20209;-74
2024/03/11 05:35:09;;;;;;;35.72;31.83;;;10.80;99.90;;;;;;4957474;28;20183;-74
2024/03/11 05:37:35;;;;;;;32.57;28.90;;;10.70;99.90;;;;;;4944068;29;20623;-73
2024/03/11 05:40:05;;;;;;;38.40;31.20;;;10.70;99.90;;;;;;4940938;29;20605;-73
2024/03/11 05:42:34;;;;;;;36.22;30.42;;;10.70;99.90;;;;;;4941786;29;20232;-73
2024/03/11 05:45:00;;;;;;;38.08;30.98;;;10.70;99.90;;;;;;4937915;29;20187;-74
2024/03/11 05:47:26;;;;;;;35.10;29.10;;;10.70;99.90;;;;;;4935861;29;20188;-73
2024/03/11 05:49:53;;;;;;;39.07;31.50;;;10.70;99.90;;;;;;4934997;29;20188;-73
2024/03/11 05:52:20;;;;;;;37.85;32.90;;;10.70;99.90;;;;;;4935107;29;20193;-73
2024/03/11 05:54:50;;;;;;;37.85;32.78;;;10.60;99.90;;;;;;4949938;29;20184;-72
2024/03/11 05:57:25;;;;;;;38.90;31.70;;;10.60;99.90;;;;;;4935253;29;20232;-73
2024/03/11 05:59:51;;;;;;;40.70;33.40;;;10.60;99.90;;;;;;4933643;29;20188;-73
2024/03/11 06:02:20;;;;;;;39.88;32.25;;;10.60;99.90;;;;;;4934663;29;20219;-74
2024/03/11 06:04:47;;;;;;;37.22;31.85;;;10.60;99.90;;;;;;4933905;29;20181;-73
2024/03/11 06:07:17;;;;;;;35.72;31.20;;;10.60;99.90;;;;;;4935250;29;20173;-74
2024/03/11 06:09:42;;;;;;;36.75;31.02;;;10.60;99.90;;;;;;4934674;29;20181;-74
2024/03/11 06:12:10;;;;;;;41.37;31.80;;;10.60;99.90;;;;;;4934619;29;20745;-73
2024/03/11 06:14:36;;;;;;;38.90;32.63;;;10.60;99.90;;;;;;4933640;29;20187;-73
2024/03/11 06:17:05;;;;;;;36.37;31.57;;;10.60;99.90;;;;;;4934976;29;20631;-74
2024/03/11 06:19:32;;;;;;;41.80;34.42;;;10.60;99.90;;;;;;4932790;29;20600;-73
2024/03/11 06:21:58;;;;;;;36.88;29.88;;;10.60;99.90;;;;;;4933927;29;20216;-74
2024/03/11 06:24:23;;;;;;;38.80;31.58;;;10.50;99.90;;;;;;4934394;29;20216;-74
2024/03/11 06:26:52;;;;;;;35.73;30.40;;;10.50;99.90;;;;;;4934596;29;20663;-74
2024/03/11 06:29:18;;;;;;;35.92;30.30;;;10.50;99.90;;;;;;4933867;29;20181;-74
2024/03/11 06:31:46;;;;;;;37.50;31.10;;;10.50;99.90;;;;;;4933274;29;20646;-74
2024/03/11 06:34:14;;;;;;;40.90;33.00;;;10.60;99.90;;;;;;4917598;29;21369;-74
2024/03/11 06:36:41;;;;;;;35.28;29.00;;;10.60;99.90;;;;;;4934584;29;20207;-73
2024/03/11 06:39:08;;;;;;;33.67;29.77;;;10.60;99.90;;;;;;4932615;29;20189;-73
2024/03/11 06:41:34;;;;;;;36.67;30.58;;;10.60;99.90;;;;;;4933064;29;20295;-73
2024/03/11 06:44:01;;;;;;;36.40;30.33;;;10.60;99.90;;;;;;4932949;29;20233;-74
2024/03/11 06:46:28;;;;;;;38.03;32.17;;;10.60;99.90;;;;;;4933754;29;21230;-77
2024/03/11 06:48:55;;;;;;;34.08;29.73;;;10.60;99.90;;;;;;4917301;29;20277;-77
2024/03/11 06:51:21;;;;;;;34.75;30.08;;;10.60;99.90;;;;;;4934578;29;20205;-77
2024/03/11 06:53:47;;;;;;;37.03;30.33;;;10.60;99.90;;;;;;4933775;29;20208;-78
2024/03/11 06:56:12;;;;;;;35.90;30.43;;;10.60;99.90;;;;;;4933462;29;20505;-78
2024/03/11 06:58:38;;;;;;;39.43;32.27;;;10.60;99.90;;;;;;4934469;29;20268;-78
2024/03/11 07:01:05;;;;;;;35.77;28.93;;;10.60;99.90;;;;;;4937639;29;20984;-78
2024/03/11 07:03:31;;;;;;;32.38;27.83;;;10.60;99.90;;;;;;4933152;29;20986;-77
2024/03/11 07:05:58;;;;;;;34.80;29.03;;;10.60;99.90;;;;;;4934143;29;20180;-77
2024/03/11 07:08:26;;;;;;;32.42;26.63;;;10.60;99.90;;;;;;4933111;29;20177;-78
2024/03/11 07:10:52;;;;;;;36.05;29.67;;;10.60;99.90;;;;;;4932154;29;20324;-78
2024/03/11 07:13:18;;;;;;;30.35;26.30;;;10.70;99.90;;;;;;4934259;29;20268;-78
2024/03/11 07:15:44;;;;;;;29.75;23.67;;;10.70;99.90;;;;;;4934650;29;20197;-80
2024/03/11 07:18:10;;;;;;;24.33;20.83;;;10.70;99.90;;;;;;4932890;29;20703;-79
2024/03/11 07:20:36;;;;;;;24.80;20.23;;;10.70;99.90;;;;;;4900971;29;20181;-77
2024/03/11 07:23:08;;;;;;;19.05;14.70;;;10.70;99.90;;;;;;4931998;29;20212;-78
2024/03/11 07:25:34;;;;;;;16.42;12.65;;;10.70;99.90;;;;;;4934322;29;20181;-79
2024/03/11 07:28:01;;;;;;;11.23;9.63;;;10.70;99.90;;;;;;4932062;29;20173;-78
2024/03/11 07:30:28;;;;;;;10.20;8.63;;;10.70;99.90;;;;;;4933689;29;20647;-76
2024/03/11 07:33:08;;;;;;;7.00;6.25;;;10.70;99.90;;;;;;4934392;29;20237;-77
2024/03/11 07:35:37;;;;;;;6.30;4.95;;;10.70;99.90;;;;;;4921687;29;20275;-76
2024/03/11 07:38:06;;;;;;;5.50;3.85;;;10.70;99.90;;;;;;4948997;29;20208;-77
2024/03/11 07:40:32;;;;;;;4.95;3.30;;;10.70;99.90;;;;;;4950894;29;20601;-76
2024/03/11 07:42:59;;;;;;;5.40;3.03;;;10.60;99.90;;;;;;4955888;29;20220;-78
2024/03/11 07:45:31;;;;;;;3.50;2.75;;;10.60;99.90;;;;;;4950857;29;20596;-78
2024/03/11 07:47:57;;;;;;;3.10;2.40;;;10.60;99.90;;;;;;4939371;29;20181;-78
2024/03/11 07:50:33;;;;;;;3.25;2.30;;;10.60;99.90;;;;;;4936233;29;20239;-78
2024/03/11 07:53:17;;;;;;;5.80;2.63;;;10.60;99.90;;;;;;4945749;29;20293;-78
2024/03/11 07:55:43;;;;;;;3.22;2.63;;;10.60;99.90;;;;;;4955748;28;20172;-78
2024/03/11 07:58:11;;;;;;;3.00;2.22;;;10.60;99.90;;;;;;4958990;28;20185;-78
2024/03/11 08:00:37;;;;;;;3.83;2.70;;;10.60;99.90;;;;;;4933727;29;20216;-77
2024/03/11 08:03:03;;;;;;;3.00;2.10;;;10.50;99.90;;;;;;4931456;29;20239;-78
2024/03/11 08:05:29;;;;;;;5.00;2.55;;;10.50;99.90;;;;;;4919225;29;20675;-78
2024/03/11 08:07:57;;;;;;;3.67;2.38;;;10.50;99.90;;;;;;4935317;29;20835;-78
2024/03/11 08:10:25;;;;;;;3.55;2.33;;;10.60;99.90;;;;;;4934756;29;20177;-77
2024/03/11 08:12:56;;;;;;;3.17;2.60;;;10.60;99.90;;;;;;4936047;29;20196;-78
2024/03/11 08:15:22;;;;;;;3.65;2.75;;;10.60;99.90;;;;;;4934550;29;20209;-77
2024/03/11 08:17:50;;;;;;;4.25;2.50;;;10.60;99.90;;;;;;4936320;29;20189;-77
2024/03/11 08:20:17;;;;;;;3.17;2.40;;;10.60;99.90;;;;;;4935974;29;20663;-77
2024/03/11 08:22:45;;;;;;;4.30;2.70;;;10.60;99.90;;;;;;4936010;29;20212;-77
2024/03/11 08:25:18;;;;;;;3.65;2.22;;;10.60;99.90;;;;;;4920615;29;20263;-77
2024/03/11 08:27:43;;;;;;;2.70;1.90;;;10.60;99.90;;;;;;4936885;29;20196;-76
2024/03/11 08:30:10;;;;;;;4.40;2.50;;;10.70;99.90;;;;;;4938138;29;20596;-76
2024/03/11 08:32:36;;;;;;;2.90;1.88;;;10.70;99.90;;;;;;4936668;29;20295;-77
2024/03/11 08:35:05;;;;;;;2.35;1.63;;;10.70;99.90;;;;;;4938643;29;20173;-78
2024/03/11 08:37:31;;;;;;;2.55;1.63;;;10.70;99.90;;;;;;4938004;29;20181;-78
2024/03/11 08:39:57;;;;;;;5.22;1.85;;;10.70;99.90;;;;;;4938029;29;20173;-77
2024/03/11 08:42:27;;;;;;;2.40;1.10;;;10.70;99.90;;;;;;4920711;29;20693;-78
2024/03/11 08:44:53;;;;;;;2.42;1.20;;;10.60;99.90;;;;;;4938261;29;20177;-78
2024/03/11 08:47:19;;;;;;;2.72;1.48;;;10.60;99.90;;;;;;4949663;29;20172;-78
2024/03/11 08:49:45;;;;;;;2.97;1.40;;;10.60;99.90;;;;;;4971518;28;20320;-78
2024/03/11 08:52:13;;;;;;;2.37;1.27;;;10.60;99.90;;;;;;4945183;29;20343;-78
2024/03/11 08:54:43;;;;;;;2.63;1.30;;;10.50;99.90;;;;;;4938258;29;20593;-78
2024/03/11 08:57:12;;;;;;;1.85;1.08;;;10.50;99.90;;;;;;4936870;29;20556;-78
2024/03/11 08:59:39;;;;;;;2.20;1.30;;;10.50;99.90;;;;;;4941849;29;20191;-77
2024/03/11 09:02:07;;;;;;;2.08;1.40;;;10.50;99.90;;;;;;4938497;28;20621;-77
2024/03/11 09:04:36;;;;;;;2.15;1.10;;;10.50;99.90;;;;;;4920169;29;20247;-77
2024/03/11 09:07:02;;;;;;;1.80;1.00;;;10.50;99.90;;;;;;4935982;29;20264;-78
2024/03/11 09:09:28;;;;;;;1.60;0.88;;;10.50;99.90;;;;;;4937402;29;20185;-78
2024/03/11 09:12:13;;;;;;;2.10;1.10;;;10.50;99.90;;;;;;4937931;29;20299;-78
2024/03/11 09:14:39;;;;;;;1.75;1.10;;;10.50;99.90;;;;;;4937821;29;20596;-79
2024/03/11 09:17:12;;;;;;;2.05;1.10;;;10.50;99.90;;;;;;4935903;29;20288;-79
2024/03/11 09:19:41;;;;;;;1.98;1.20;;;10.50;99.90;;;;;;4937243;29;20189;-79
2024/03/11 09:22:07;;;;;;;2.58;1.70;;;10.50;99.90;;;;;;4936339;29;20208;-79
2024/03/11 09:24:33;;;;;;;2.83;1.40;;;10.50;99.90;;;;;;4937650;29;20213;-78
2024/03/11 09:27:02;;;;;;;2.42;1.50;;;10.50;99.90;;;;;;4939366;29;20209;-78
2024/03/11 09:29:29;;;;;;;2.10;1.20;;;10.50;99.90;;;;;;4956627;29;20168;-79
2024/03/11 09:31:55;;;;;;;1.80;0.90;;;10.50;99.90;;;;;;4938738;29;20197;-77
2024/03/11 09:34:21;;;;;;;2.30;1.30;;;10.50;99.90;;;;;;4951132;29;20187;-77
2024/03/11 09:36:46;;;;;;;2.00;1.40;;;10.60;99.90;;;;;;4937503;29;20593;-77
2024/03/11 09:39:13;;;;;;;2.23;1.20;;;10.60;99.90;;;;;;4938955;29;20573;-79
2024/03/11 09:41:43;;;;;;;2.17;1.30;;;10.60;99.90;;;;;;4959005;29;20217;-77
2024/03/11 09:44:27;;;;;;;1.80;1.00;;;10.60;99.90;;;;;;4959830;28;20277;-78
2024/03/11 09:46:55;;;;;;;2.45;1.30;;;10.60;99.90;;;;;;4959715;28;20196;-77
2024/03/11 09:49:23;;;;;;;1.85;1.10;;;10.60;99.90;;;;;;4953523;29;20197;-78
2024/03/11 09:51:50;;;;;;;3.40;0.80;;;10.60;99.90;;;;;;4954124;29;20201;-78
2024/03/11 09:54:17;;;;;;;2.00;0.88;;;10.60;99.90;;;;;;4937714;29;20185;-77
2024/03/11 09:56:47;;;;;;;1.70;0.70;;;10.50;99.90;;;;;;4957143;29;20185;-78
2024/03/11 09:59:18;;;;;;;2.45;0.82;;;10.50;99.90;;;;;;4952595;29;20384;-78
2024/03/11 10:01:55;;;;;;;1.90;0.70;;;10.50;99.90;;;;;;4955426;29;20623;-78
2024/03/11 10:04:22;;;;;;;1.40;0.65;;;10.50;99.90;;;;;;4950216;29;20212;-78
2024/03/11 10:07:15;;;;;;;2.58;0.75;;;10.50;99.90;;;;;;4949708;29;20217;-78
2024/03/11 10:09:44;;;;;;;1.33;0.70;;;10.50;99.90;;;;;;4947232;29;20220;-75
2024/03/11 10:12:12;;;;;;;1.95;0.70;;;10.50;99.90;;;;;;4938702;29;20215;-74
2024/03/11 10:14:39;;;;;;;3.38;0.70;;;10.50;99.90;;;;;;4939225;29;20181;-75
2024/03/11 10:17:23;;;;;;;1.38;0.60;;;10.50;99.90;;;;;;4941409;29;20229;-74
2024/03/11 10:19:54;;;;;;;1.58;0.57;;;10.50;99.90;;;;;;4940514;29;20185;-75
2024/03/11 10:22:24;;;;;;;1.50;0.60;;;10.50;99.90;;;;;;4936238;29;20273;-75
2024/03/11 10:24:56;;;;;;;1.83;0.60;;;10.50;99.90;;;;;;4936486;29;20177;-75
2024/03/11 10:27:24;;;;;;;2.35;0.60;;;10.40;99.90;;;;;;4947673;28;20191;-75
2024/03/11 10:29:50;;;;;;;1.15;0.50;;;10.40;99.90;;;;;;4939558;29;20185;-76
2024/03/11 10:32:36;;;;;;;1.77;0.60;;;10.40;99.90;;;;;;4918375;29;20193;-74
2024/03/11 10:35:03;;;;;;;1.33;0.50;;;10.30;99.90;;;;;;4934859;29;20188;-74
2024/03/11 10:37:32;;;;;;;1.30;0.63;;;10.30;99.90;;;;;;4935141;29;20173;-73
2024/03/11 10:40:00;;;;;;;1.30;0.60;;;10.30;99.90;;;;;;4934363;29;20276;-74
2024/03/11 10:42:34;;;;;;;2.63;0.90;;;10.30;99.90;;;;;;4928170;29;20298;-74
2024/03/11 10:45:05;;;;;;;1.42;0.60;;;10.30;99.90;;;;;;4936515;29;20769;-74
2024/03/11 10:47:31;;;;;;;2.45;0.63;;;10.30;99.90;;;;;;4934164;29;20185;-74
2024/03/11 10:50:03;;;;;;;1.80;1.10;;;10.30;99.90;;;;;;4916805;29;20177;-74
2024/03/11 10:52:33;;;;;;;1.85;0.93;;;10.30;99.90;;;;;;4934590;29;20207;-74
2024/03/11 10:55:02;;;;;;;1.60;0.90;;;10.30;99.90;;;;;;4933637;29;20189;-74
2024/03/11 10:57:38;;;;;;;2.05;1.20;;;10.30;99.90;;;;;;4934614;29;20192;-74
2024/03/11 11:00:18;;;;;;;1.95;0.82;;;10.30;99.90;;;;;;4933234;29;20579;-75
2024/03/11 11:03:07;;;;;;;1.52;0.80;;;10.30;99.90;;;;;;4932013;29;20248;-75
2024/03/11 11:05:39;;;;;;;3.63;1.13;;;10.30;99.90;;;;;;4925890;29;20181;-75
2024/03/11 11:08:07;;;;;;;2.05;0.90;;;10.40;99.90;;;;;;4932568;29;20173;-75
2024/03/11 11:10:35;;;;;;;2.20;0.90;;;10.40;99.90;;;;;;4933217;29;20181;-75
2024/03/11 11:13:05;;;;;;;2.30;0.90;;;10.40;99.90;;;;;;4932179;29;20200;-74
2024/03/11 11:15:35;;;;;;;1.92;1.00;;;10.50;99.90;;;;;;4931944;29;20272;-75
2024/03/11 11:18:05;;;;;;;3.30;1.02;;;10.50;99.90;;;;;;4947539;29;20596;-73
2024/03/11 11:20:38;;;;;;;3.08;1.23;;;10.50;99.90;;;;;;4933231;29;20185;-74
2024/03/11 11:23:05;;;;;;;2.35;1.08;;;10.50;99.90;;;;;;4932440;29;20224;-74
2024/03/11 11:25:40;;;;;;;2.83;0.90;;;10.40;99.90;;;;;;4934120;29;20185;-74
2024/03/11 11:28:13;;;;;;;2.25;0.80;;;10.40;99.90;;;;;;4933707;29;20184;-74
2024/03/11 11:30:43;;;;;;;2.88;0.90;;;10.40;99.90;;;;;;4931705;29;20192;-74
2024/03/11 11:33:10;;;;;;;2.47;0.90;;;10.40;99.90;;;;;;4933109;29;20227;-74
2024/03/11 11:35:40;;;;;;;2.75;0.90;;;10.50;99.90;;;;;;4933971;29;20188;-75
2024/03/11 11:38:29;;;;;;;2.50;1.20;;;10.50;99.90;;;;;;4932051;29;20181;-75
2024/03/11 11:40:56;;;;;;;7.07;1.20;;;10.50;99.90;;;;;;4931510;29;20188;-74
2024/03/11 11:43:41;;;;;;;3.53;1.20;;;10.50;99.90;;;;;;4932174;29;20231;-75
2024/03/11 11:46:11;;;;;;;1.88;0.90;;;10.50;99.90;;;;;;4931995;29;20180;-75
2024/03/11 11:48:37;;;;;;;2.30;1.20;;;10.50;99.90;;;;;;4934231;29;20181;-75
2024/03/11 11:51:04;;;;;;;3.55;1.40;;;10.50;99.90;;;;;;4931861;29;20185;-74
2024/03/11 11:53:32;;;;;;;2.50;0.90;;;10.60;99.90;;;;;;4934763;29;20636;-75
2024/03/11 11:56:01;;;;;;;2.65;1.10;;;10.60;99.90;;;;;;4938875;29;20259;-74
2024/03/11 11:58:28;;;;;;;3.25;1.38;;;10.60;99.90;;;;;;4929397;29;20192;-74
2024/03/11 12:00:59;;;;;;;2.75;1.00;;;10.70;99.90;;;;;;4934954;29;20545;-74
2024/03/11 12:03:28;;;;;;;2.58;1.23;;;10.70;99.90;;;;;;4915421;29;20609;-74
2024/03/11 12:06:20;;;;;;;3.90;1.30;;;10.80;99.90;;;;;;4931436;29;20177;-74
2024/03/11 12:08:51;;;;;;;2.05;1.00;;;10.80;99.90;;;;;;4927313;29;20540;-75
2024/03/11 12:11:20;;;;;;;2.03;0.93;;;10.90;99.90;;;;;;4915112;29;20208;-75
2024/03/11 12:13:58;;;;;;;2.55;1.30;;;10.80;99.90;;;;;;4930675;29;20259;-75
2024/03/11 12:16:24;;;;;;;1.75;0.90;;;10.90;99.90;;;;;;4938772;29;20188;-74
2024/03/11 12:19:01;;;;;;;2.30;1.20;;;10.90;99.90;;;;;;4931961;29;20188;-75
2024/03/11 12:21:27;;;;;;;3.08;1.30;;;10.90;99.90;;;;;;4932084;29;20196;-75
2024/03/11 12:23:54;;;;;;;2.40;1.02;;;10.90;99.90;;;;;;4932514;29;20674;-75
2024/03/11 12:26:26;;;;;;;2.30;1.02;;;10.90;99.90;;;;;;4932050;29;20193;-75
2024/03/11 12:29:06;;;;;;;2.00;0.90;;;10.90;99.90;;;;;;4932626;29;20189;-76
2024/03/11 12:31:35;;;;;;;3.65;1.13;;;10.90;99.90;;;;;;4925067;29;20263;-75
2024/03/11 12:34:09;;;;;;;2.65;1.40;;;11.00;99.90;;;;;;4931054;29;20205;-75
2024/03/11 12:36:40;;;;;;;2.20;0.80;;;11.00;99.90;;;;;;4932582;29;20251;-75
2024/03/11 12:39:16;;;;;;;1.50;0.80;;;11.00;99.90;;;;;;4931950;29;20177;-75
2024/03/11 12:41:42;;;;;;;1.85;0.88;;;11.10;99.90;;;;;;4932358;29;20227;-74